Time;durP1;ratioP1;P1;durP2;ratioP2;P2;SDS_P1;SDS_P2;PMS_P1;PMS_P2;Temp;Humidity;BMP_temperature;BMP_pressure;BME280_temperature;BME280_humidity;BME280_pressure;Samples;Min_cycle;Max_cycle;Signal;HPM_P1;HPM_P2
2024/02/25 00:01:29;;;;;;;11.33;6.77;;;0.60;99.90;;;;;;5049166;28;20416;-53
2024/02/25 00:03:55;;;;;;;9.03;5.80;;;0.60;99.90;;;;;;5053496;28;20420;-53
2024/02/25 00:06:20;;;;;;;8.10;5.53;;;0.60;99.90;;;;;;5045276;28;20170;-55
2024/02/25 00:08:46;;;;;;;11.40;6.40;;;0.60;99.90;;;;;;5044817;28;20199;-57
2024/02/25 00:11:11;;;;;;;12.53;6.53;;;0.60;99.90;;;;;;5055424;28;20178;-54
2024/02/25 00:13:38;;;;;;;13.03;6.70;;;0.70;99.90;;;;;;5049719;28;20179;-54
2024/02/25 00:16:04;;;;;;;11.97;6.73;;;0.70;99.90;;;;;;5054624;28;20182;-57
2024/02/25 00:18:29;;;;;;;11.17;6.50;;;0.70;99.90;;;;;;5043630;28;20499;-53
2024/02/25 00:20:55;;;;;;;8.90;5.60;;;0.70;99.90;;;;;;5051400;28;20454;-55
2024/02/25 00:23:21;;;;;;;12.53;7.00;;;0.70;99.90;;;;;;5051467;28;20558;-56
2024/02/25 00:25:46;;;;;;;19.83;8.20;;;0.70;99.90;;;;;;5051817;28;20254;-55
2024/02/25 00:28:12;;;;;;;29.73;8.73;;;0.70;99.90;;;;;;5056290;28;20282;-53
2024/02/25 00:30:37;;;;;;;18.97;8.73;;;0.70;99.90;;;;;;5054348;28;20198;-55
2024/02/25 00:33:03;;;;;;;175.97;12.63;;;0.70;99.90;;;;;;5052154;28;20171;-54
2024/02/25 00:35:29;;;;;;;37.20;10.00;;;0.70;99.90;;;;;;5057318;28;20174;-56
2024/02/25 00:37:55;;;;;;;30.40;8.57;;;0.60;99.90;;;;;;5052251;28;20458;-57
2024/02/25 00:40:20;;;;;;;87.80;11.40;;;0.60;99.90;;;;;;5050726;28;20232;-54
2024/02/25 00:42:46;;;;;;;99.53;11.13;;;0.60;99.90;;;;;;5045471;28;20182;-53
2024/02/25 00:45:11;;;;;;;89.57;10.03;;;0.60;99.90;;;;;;5051017;28;20174;-55
2024/02/25 00:47:37;;;;;;;46.03;8.57;;;0.60;99.90;;;;;;5047669;28;20611;-56
2024/02/25 00:50:04;;;;;;;102.27;9.63;;;0.50;99.90;;;;;;5060519;28;20205;-55
2024/02/25 00:52:31;;;;;;;276.60;15.20;;;0.50;99.90;;;;;;5046661;28;20271;-54
2024/02/25 00:54:58;;;;;;;107.63;10.23;;;0.50;99.90;;;;;;5054018;28;20417;-54
2024/02/25 00:57:24;;;;;;;167.43;11.20;;;0.40;99.90;;;;;;5049118;28;20498;-54
2024/02/25 00:59:49;;;;;;;80.80;9.73;;;0.40;99.90;;;;;;5058173;28;20512;-54
2024/02/25 01:02:15;;;;;;;76.47;9.07;;;0.40;99.90;;;;;;5044871;28;20652;-56
2024/02/25 01:04:41;;;;;;;160.77;11.60;;;0.30;99.90;;;;;;5055544;28;20177;-53
2024/02/25 01:07:07;;;;;;;113.10;10.03;;;0.30;99.90;;;;;;5052370;28;20450;-53
2024/02/25 01:09:32;;;;;;;165.63;9.73;;;0.30;99.90;;;;;;5051963;28;20213;-56
2024/02/25 01:11:58;;;;;;;159.80;11.83;;;0.30;99.90;;;;;;5043405;28;20424;-56
2024/02/25 01:14:24;;;;;;;59.73;8.93;;;0.30;99.90;;;;;;5054895;28;20587;-55
2024/02/25 01:16:50;;;;;;;169.17;11.10;;;0.20;99.90;;;;;;5054640;28;20181;-54
2024/02/25 01:19:17;;;;;;;120.47;9.93;;;0.20;99.90;;;;;;5050813;28;20456;-54
2024/02/25 01:21:43;;;;;;;211.80;13.20;;;0.20;99.90;;;;;;5054214;28;20431;-54
2024/02/25 01:24:09;;;;;;;137.97;11.70;;;0.20;99.90;;;;;;5033012;28;20443;-52
2024/02/25 01:26:42;;;;;;;136.80;11.20;;;0.20;99.90;;;;;;5046765;28;20433;-55
2024/02/25 01:29:08;;;;;;;177.23;9.77;;;0.20;99.90;;;;;;5047150;28;20832;-55
2024/02/25 01:31:41;;;;;;;90.43;10.30;;;0.20;99.90;;;;;;5048982;28;20418;-54
2024/02/25 01:34:06;;;;;;;181.27;13.40;;;0.10;99.90;;;;;;5053449;28;20569;-53
2024/02/25 01:36:32;;;;;;;148.27;9.83;;;0.00;99.90;;;;;;5058067;28;20522;-54
2024/02/25 01:38:59;;;;;;;204.30;11.07;;;0.00;99.90;;;;;;5047878;28;20197;-53
2024/02/25 01:41:25;;;;;;;182.03;12.40;;;0.00;99.90;;;;;;5049232;28;20182;-54
2024/02/25 01:43:51;;;;;;;82.83;8.30;;;0.00;99.90;;;;;;5051694;28;20554;-57
2024/02/25 01:46:17;;;;;;;100.20;8.70;;;0.00;99.90;;;;;;5047280;28;20506;-54
2024/02/25 01:48:45;;;;;;;63.53;7.47;;;-0.10;99.90;;;;;;5050675;28;20213;-55
2024/02/25 01:51:11;;;;;;;89.20;9.17;;;-0.10;99.90;;;;;;5046298;28;20450;-56
2024/02/25 01:53:37;;;;;;;82.13;8.47;;;-0.20;99.90;;;;;;5035354;28;20935;-54
2024/02/25 01:56:04;;;;;;;28.40;5.67;;;-0.20;99.90;;;;;;5036806;28;20425;-56
2024/02/25 01:58:30;;;;;;;46.17;7.33;;;-0.30;99.90;;;;;;5043834;28;20434;-56
2024/02/25 02:00:55;;;;;;;53.20;5.80;;;-0.30;99.90;;;;;;5050815;28;20804;-56
2024/02/25 02:03:21;;;;;;;81.93;7.30;;;-0.30;99.90;;;;;;5052052;28;20194;-53
2024/02/25 02:05:46;;;;;;;77.43;7.37;;;-0.30;99.90;;;;;;5044153;28;20174;-54
2024/02/25 02:08:12;;;;;;;120.10;8.07;;;-0.30;99.90;;;;;;5045755;28;20207;-54
2024/02/25 02:10:38;;;;;;;152.73;9.97;;;-0.40;99.90;;;;;;5050360;28;20602;-56
2024/02/25 02:13:05;;;;;;;97.13;8.20;;;-0.40;99.90;;;;;;5056977;28;20415;-55
2024/02/25 02:15:30;;;;;;;101.77;8.70;;;-0.40;99.90;;;;;;5049333;28;20250;-55
2024/02/25 02:17:56;;;;;;;89.30;7.00;;;-0.40;99.90;;;;;;5056269;28;20427;-55
2024/02/25 02:20:22;;;;;;;38.67;7.53;;;-0.40;99.90;;;;;;5053871;28;20201;-57
2024/02/25 02:22:48;;;;;;;31.23;5.20;;;-0.40;99.90;;;;;;5053099;28;20219;-55
2024/02/25 02:25:17;;;;;;;69.23;7.27;;;-0.30;99.90;;;;;;5057072;28;20250;-53
2024/02/25 02:27:44;;;;;;;36.80;5.77;;;-0.30;99.90;;;;;;5063643;28;20290;-55
2024/02/25 02:30:11;;;;;;;24.70;6.17;;;-0.30;99.90;;;;;;5054443;28;20835;-57
2024/02/25 02:32:37;;;;;;;81.90;7.43;;;-0.40;99.90;;;;;;5049507;28;20486;-56
2024/02/25 02:35:03;;;;;;;77.77;8.53;;;-0.40;99.90;;;;;;5055769;28;20434;-57
2024/02/25 02:37:30;;;;;;;15.10;6.10;;;-0.40;99.90;;;;;;5060996;28;20413;-54
2024/02/25 02:39:55;;;;;;;198.07;10.83;;;-0.30;99.90;;;;;;5056795;28;20456;-53
2024/02/25 02:42:21;;;;;;;26.93;5.93;;;-0.40;99.90;;;;;;5053958;28;20433;-54
2024/02/25 02:44:48;;;;;;;58.97;6.90;;;-0.40;99.90;;;;;;5054812;28;20185;-55
2024/02/25 02:47:14;;;;;;;171.23;9.33;;;-0.40;99.90;;;;;;5054976;28;20212;-55
2024/02/25 02:49:40;;;;;;;65.77;7.67;;;-0.40;99.90;;;;;;5055113;28;20534;-53
2024/02/25 02:52:06;;;;;;;217.13;11.40;;;-0.50;99.90;;;;;;5045821;28;20528;-54
2024/02/25 02:54:31;;;;;;;74.57;7.13;;;-0.50;99.90;;;;;;5046278;28;20185;-56
2024/02/25 02:56:57;;;;;;;172.00;11.40;;;-0.60;99.90;;;;;;5049779;28;20675;-56
2024/02/25 02:59:23;;;;;;;39.60;5.47;;;-0.70;99.90;;;;;;5048489;28;20299;-55
2024/02/25 03:01:49;;;;;;;83.07;8.47;;;-0.70;99.90;;;;;;5048645;28;20181;-53
2024/02/25 03:04:15;;;;;;;55.87;6.63;;;-0.70;99.90;;;;;;5053351;28;20185;-59
2024/02/25 03:06:41;;;;;;;47.60;5.50;;;-0.80;99.90;;;;;;5060542;28;20431;-54
2024/02/25 03:09:06;;;;;;;119.53;8.07;;;-0.80;99.90;;;;;;5054468;28;20225;-54
2024/02/25 03:11:32;;;;;;;60.97;6.03;;;-0.80;99.90;;;;;;5052803;28;20798;-51
2024/02/25 03:13:57;;;;;;;78.50;7.13;;;-0.90;99.90;;;;;;5051900;28;20170;-58
2024/02/25 03:16:23;;;;;;;74.50;7.03;;;-0.90;99.90;;;;;;5051386;28;20304;-52
2024/02/25 03:18:48;;;;;;;13.03;4.37;;;-0.90;99.90;;;;;;5054258;28;20226;-54
2024/02/25 03:21:14;;;;;;;9.03;4.63;;;-0.90;99.90;;;;;;5056875;28;20188;-52
2024/02/25 03:23:40;;;;;;;52.33;5.50;;;-0.90;99.90;;;;;;5054798;28;20184;-52
2024/02/25 03:26:12;;;;;;;25.53;4.97;;;-0.90;99.90;;;;;;5051409;28;20553;-54
2024/02/25 03:28:37;;;;;;;20.67;4.57;;;-0.90;99.90;;;;;;5052942;28;20237;-57
2024/02/25 03:31:03;;;;;;;17.73;4.73;;;-0.90;99.90;;;;;;5056509;28;20461;-52
2024/02/25 03:33:28;;;;;;;9.30;4.80;;;-1.00;99.90;;;;;;5055300;28;20693;-54
2024/02/25 03:35:54;;;;;;;79.73;6.43;;;-1.00;99.90;;;;;;5062722;28;20204;-53
2024/02/25 03:38:20;;;;;;;34.93;4.57;;;-1.00;99.90;;;;;;5049185;28;20189;-56
2024/02/25 03:40:45;;;;;;;98.93;6.67;;;-1.00;99.90;;;;;;5054070;28;20211;-52
2024/02/25 03:43:14;;;;;;;78.10;6.60;;;-1.00;99.90;;;;;;5053925;28;20200;-53
2024/02/25 03:45:40;;;;;;;23.83;4.53;;;-1.00;99.90;;;;;;5053702;28;20195;-58
2024/02/25 03:48:06;;;;;;;13.00;4.10;;;-1.10;99.90;;;;;;5050476;28;20490;-55
2024/02/25 03:50:32;;;;;;;22.83;4.20;;;-1.00;99.90;;;;;;5045676;28;20830;-53
2024/02/25 03:52:57;;;;;;;50.10;5.17;;;-1.10;99.90;;;;;;5042126;28;20519;-54
2024/02/25 03:55:24;;;;;;;52.90;6.73;;;-1.10;99.90;;;;;;5050037;28;20270;-52
2024/02/25 03:57:50;;;;;;;22.53;5.20;;;-1.10;99.90;;;;;;5056234;28;20180;-52
2024/02/25 04:00:16;;;;;;;38.90;4.63;;;-1.10;99.90;;;;;;5059281;28;20440;-52
2024/02/25 04:02:44;;;;;;;50.10;5.87;;;-1.10;99.90;;;;;;5051592;28;20237;-53
2024/02/25 04:05:10;;;;;;;19.70;6.80;;;-1.20;99.90;;;;;;5048364;28;20437;-54
2024/02/25 04:07:36;;;;;;;55.20;8.10;;;-1.20;99.90;;;;;;5056966;28;20475;-52
2024/02/25 04:10:01;;;;;;;21.23;5.30;;;-1.20;99.90;;;;;;5053151;28;20208;-58
2024/02/25 04:12:27;;;;;;;134.57;8.80;;;-1.30;99.90;;;;;;5048892;28;20202;-53
2024/02/25 04:14:52;;;;;;;17.93;5.30;;;-1.30;99.90;;;;;;5057753;28;20173;-54
2024/02/25 04:17:18;;;;;;;63.63;5.87;;;-1.30;99.90;;;;;;5053653;28;20189;-52
2024/02/25 04:19:44;;;;;;;36.70;7.40;;;-1.30;99.90;;;;;;5057211;28;20649;-53
2024/02/25 04:22:10;;;;;;;75.33;7.10;;;-1.40;99.90;;;;;;5063153;28;20447;-53
2024/02/25 04:24:35;;;;;;;46.50;5.77;;;-1.40;99.90;;;;;;5049277;28;20177;-54
2024/02/25 04:27:02;;;;;;;71.67;6.70;;;-1.40;99.90;;;;;;5054754;28;20224;-52
2024/02/25 04:29:28;;;;;;;133.17;9.67;;;-1.40;99.90;;;;;;5057610;28;20208;-52
2024/02/25 04:31:54;;;;;;;18.43;5.93;;;-1.40;99.90;;;;;;5044035;28;20426;-54
2024/02/25 04:34:19;;;;;;;27.67;5.90;;;-1.40;99.90;;;;;;5041897;28;20220;-56
2024/02/25 04:36:48;;;;;;;44.23;6.73;;;-1.50;99.90;;;;;;5048455;28;20211;-54
2024/02/25 04:39:13;;;;;;;100.23;8.23;;;-1.40;99.90;;;;;;5049328;28;20235;-53
2024/02/25 04:41:39;;;;;;;66.53;6.50;;;-1.40;99.90;;;;;;5055745;28;20480;-54
2024/02/25 04:44:09;;;;;;;108.13;8.90;;;-1.40;99.90;;;;;;5053910;28;20185;-54
2024/02/25 04:46:35;;;;;;;75.93;7.93;;;-1.40;99.90;;;;;;5051361;28;20265;-53
2024/02/25 04:49:01;;;;;;;20.23;6.40;;;-1.50;99.90;;;;;;5050674;28;20984;-54
2024/02/25 04:51:27;;;;;;;203.20;12.13;;;-1.50;99.90;;;;;;5059203;28;20480;-55
2024/02/25 04:53:57;;;;;;;105.00;8.40;;;-1.50;99.90;;;;;;5049029;28;20842;-56
2024/02/25 04:56:25;;;;;;;27.33;6.27;;;-1.50;99.90;;;;;;5052183;28;20177;-54
2024/02/25 04:58:51;;;;;;;241.30;12.77;;;-1.50;99.90;;;;;;5054117;28;21061;-55
2024/02/25 05:01:16;;;;;;;53.67;7.43;;;-1.60;99.90;;;;;;5054194;28;20497;-54
2024/02/25 05:03:42;;;;;;;177.70;9.53;;;-1.60;99.90;;;;;;5052659;28;20188;-54
2024/02/25 05:06:08;;;;;;;172.80;9.77;;;-1.60;99.90;;;;;;5044085;28;20229;-53
2024/02/25 05:08:33;;;;;;;107.13;7.37;;;-1.70;99.90;;;;;;5043335;28;20220;-52
2024/02/25 05:10:59;;;;;;;51.67;6.57;;;-1.70;99.90;;;;;;5050216;28;20575;-53
2024/02/25 05:13:24;;;;;;;88.13;8.03;;;-1.80;99.90;;;;;;5121685;22;20219;-60
2024/02/25 05:15:50;;;;;;;18.17;5.90;;;-1.80;99.90;;;;;;5106037;28;20244;-58
2024/02/25 05:18:15;;;;;;;15.40;5.60;;;-1.80;99.90;;;;;;5084815;28;20188;-58
2024/02/25 05:20:41;;;;;;;110.97;8.73;;;-1.70;99.90;;;;;;5085703;28;21021;-57
2024/02/25 05:23:07;;;;;;;35.60;6.80;;;-1.70;99.90;;;;;;5090658;28;20199;-58
2024/02/25 05:25:33;;;;;;;30.57;6.33;;;-1.70;99.90;;;;;;5086127;28;20221;-59
2024/02/25 05:27:58;;;;;;;44.83;7.17;;;-1.70;99.90;;;;;;5082696;28;20542;-59
2024/02/25 05:30:24;;;;;;;21.33;5.20;;;-1.70;99.90;;;;;;5080216;28;20601;-58
2024/02/25 05:32:50;;;;;;;56.47;8.23;;;-1.80;99.90;;;;;;5076091;28;20243;-58
2024/02/25 05:35:15;;;;;;;34.77;5.87;;;-1.80;99.90;;;;;;5080920;28;20630;-60
2024/02/25 05:37:41;;;;;;;27.13;5.87;;;-1.80;99.90;;;;;;5085251;28;20198;-58
2024/02/25 05:40:08;;;;;;;20.33;5.70;;;-1.80;99.90;;;;;;5091966;28;20198;-57
2024/02/25 05:42:35;;;;;;;41.70;5.37;;;-1.80;99.90;;;;;;5084176;28;20693;-56
2024/02/25 05:45:02;;;;;;;49.57;5.47;;;-1.80;99.90;;;;;;5080879;28;21065;-58
2024/02/25 05:47:28;;;;;;;14.10;4.93;;;-1.90;99.90;;;;;;5085030;28;20553;-57
2024/02/25 05:49:55;;;;;;;31.27;5.30;;;-1.90;99.90;;;;;;5087249;28;20468;-58
2024/02/25 05:52:21;;;;;;;19.13;5.30;;;-1.90;99.90;;;;;;5077603;28;20294;-58
2024/02/25 05:54:46;;;;;;;16.07;4.37;;;-1.90;99.90;;;;;;5082390;28;20434;-57
2024/02/25 05:57:12;;;;;;;27.90;5.03;;;-1.90;99.90;;;;;;5082512;28;20253;-58
2024/02/25 05:59:37;;;;;;;38.10;5.10;;;-1.90;99.90;;;;;;5082566;28;20187;-57
2024/02/25 06:02:03;;;;;;;18.97;5.40;;;-2.00;99.90;;;;;;5080603;28;20911;-58
2024/02/25 06:04:29;;;;;;;7.10;5.07;;;-2.00;99.90;;;;;;5074744;28;20227;-57
2024/02/25 06:06:55;;;;;;;9.10;4.53;;;-2.00;99.90;;;;;;5082211;28;20672;-58
2024/02/25 06:09:21;;;;;;;7.53;5.20;;;-2.00;99.90;;;;;;5083568;28;20426;-58
2024/02/25 06:11:48;;;;;;;13.00;5.60;;;-2.00;99.90;;;;;;5085278;28;20239;-57
2024/02/25 06:14:14;;;;;;;11.13;5.90;;;-2.00;99.90;;;;;;5084196;28;20466;-57
2024/02/25 06:16:40;;;;;;;37.20;5.67;;;-1.90;99.90;;;;;;5081162;28;20442;-58
2024/02/25 06:19:06;;;;;;;28.90;5.50;;;-2.00;99.90;;;;;;5084061;28;20461;-58
2024/02/25 06:21:32;;;;;;;84.47;7.53;;;-2.00;99.90;;;;;;5085678;28;20437;-57
2024/02/25 06:23:58;;;;;;;69.37;6.57;;;-2.00;99.90;;;;;;5085140;28;20441;-57
2024/02/25 06:26:23;;;;;;;71.43;7.40;;;-2.10;99.90;;;;;;5079207;28;20302;-58
2024/02/25 06:28:49;;;;;;;45.30;5.80;;;-2.10;99.90;;;;;;5078987;28;20252;-56
2024/02/25 06:31:14;;;;;;;68.93;6.50;;;-2.10;99.90;;;;;;5081509;28;20247;-55
2024/02/25 06:33:40;;;;;;;30.10;5.23;;;-2.20;99.90;;;;;;5084320;28;20655;-57
2024/02/25 06:36:06;;;;;;;99.53;7.30;;;-2.20;99.90;;;;;;5084348;28;20171;-58
2024/02/25 06:38:32;;;;;;;12.93;4.93;;;-2.20;99.90;;;;;;5083699;28;20196;-57
2024/02/25 06:40:58;;;;;;;23.23;7.03;;;-2.20;99.90;;;;;;5084297;28;20942;-57
2024/02/25 06:43:25;;;;;;;32.23;6.73;;;-2.20;99.90;;;;;;5083776;28;20214;-58
2024/02/25 06:45:51;;;;;;;8.23;5.23;;;-2.20;99.90;;;;;;5083146;28;20212;-58
2024/02/25 06:48:17;;;;;;;9.30;5.73;;;-2.20;99.90;;;;;;5086816;28;20457;-59
2024/02/25 06:50:43;;;;;;;12.43;6.30;;;-2.10;99.90;;;;;;5084804;28;20422;-58
2024/02/25 06:53:08;;;;;;;9.20;6.10;;;-2.10;99.90;;;;;;5082071;28;20271;-58
2024/02/25 06:55:34;;;;;;;6.50;4.80;;;-2.00;99.90;;;;;;5085839;28;20256;-58
2024/02/25 06:57:59;;;;;;;7.60;4.80;;;-2.00;99.90;;;;;;5083277;28;20717;-59
2024/02/25 07:00:25;;;;;;;6.37;4.40;;;-2.00;99.90;;;;;;5080886;28;20206;-58
2024/02/25 07:02:54;;;;;;;7.53;4.70;;;-1.90;99.90;;;;;;5082526;28;20283;-56
2024/02/25 07:05:20;;;;;;;8.20;5.07;;;-1.80;99.90;;;;;;5090207;28;20175;-59
2024/02/25 07:07:46;;;;;;;9.43;5.10;;;-1.80;99.90;;;;;;5084232;28;20457;-57
2024/02/25 07:10:12;;;;;;;8.13;5.43;;;-1.70;99.90;;;;;;5086401;28;20440;-59
2024/02/25 07:12:37;;;;;;;7.07;5.00;;;-1.70;99.90;;;;;;5087475;28;20541;-57
2024/02/25 07:15:04;;;;;;;7.73;5.20;;;-1.60;99.90;;;;;;5089373;28;20691;-58
2024/02/25 07:17:30;;;;;;;8.60;5.10;;;-1.60;99.90;;;;;;5085769;28;20258;-58
2024/02/25 07:19:55;;;;;;;5.97;4.90;;;-1.50;99.90;;;;;;5087519;28;20991;-58
2024/02/25 07:22:21;;;;;;;7.77;5.30;;;-1.50;99.90;;;;;;5083234;28;20757;-57
2024/02/25 07:24:46;;;;;;;7.97;5.80;;;-1.30;99.90;;;;;;5084375;28;20184;-58
2024/02/25 07:27:12;;;;;;;7.70;5.73;;;-1.30;99.90;;;;;;5084797;28;20210;-59
2024/02/25 07:29:37;;;;;;;8.40;5.60;;;-1.20;99.90;;;;;;5082224;28;20605;-58
2024/02/25 07:32:03;;;;;;;10.10;6.87;;;-1.10;99.90;;;;;;5082361;28;20265;-58
2024/02/25 07:34:29;;;;;;;11.97;7.70;;;-1.00;99.90;;;;;;5079473;28;20297;-58
2024/02/25 07:36:55;;;;;;;12.33;7.50;;;-0.90;99.90;;;;;;5091039;28;20506;-58
2024/02/25 07:39:20;;;;;;;11.27;7.60;;;-0.80;99.90;;;;;;5086447;28;20173;-58
2024/02/25 07:41:47;;;;;;;10.17;6.73;;;-0.70;99.90;;;;;;5096186;28;20192;-58
2024/02/25 07:44:13;;;;;;;11.27;6.50;;;-0.60;99.90;;;;;;5091996;28;20346;-58
2024/02/25 07:46:39;;;;;;;10.10;6.20;;;-0.50;99.90;;;;;;5087805;28;20924;-58
2024/02/25 07:49:04;;;;;;;8.10;5.80;;;-0.40;99.90;;;;;;5088583;28;20465;-57
2024/02/25 07:51:36;;;;;;;10.80;6.40;;;-0.40;99.90;;;;;;5088259;28;20268;-58
2024/02/25 07:54:03;;;;;;;9.17;6.30;;;-0.30;99.90;;;;;;5086269;28;20204;-59
2024/02/25 07:56:28;;;;;;;9.57;6.20;;;-0.20;99.90;;;;;;5088787;28;20501;-57
2024/02/25 07:58:54;;;;;;;8.40;5.93;;;-0.20;99.90;;;;;;5087526;28;20509;-58
2024/02/25 08:01:20;;;;;;;9.50;6.30;;;-0.20;99.90;;;;;;5083492;28;20433;-58
2024/02/25 08:03:46;;;;;;;7.83;6.10;;;-0.10;99.90;;;;;;5081304;28;20330;-58
2024/02/25 08:06:12;;;;;;;15.27;6.60;;;0.00;99.90;;;;;;5084868;28;20266;-58
2024/02/25 08:08:37;;;;;;;8.33;6.60;;;0.00;99.90;;;;;;5087114;28;20468;-59
2024/02/25 08:11:03;;;;;;;9.13;6.00;;;0.00;99.90;;;;;;5086855;28;20505;-58
2024/02/25 08:13:29;;;;;;;8.13;5.60;;;0.10;99.90;;;;;;5080739;28;20250;-58
2024/02/25 08:15:55;;;;;;;10.00;6.53;;;0.10;99.90;;;;;;5087909;28;20418;-58
2024/02/25 08:18:21;;;;;;;8.87;5.90;;;0.20;99.90;;;;;;5083502;28;20181;-58
2024/02/25 08:20:46;;;;;;;8.50;5.57;;;0.20;99.90;;;;;;5102888;28;20176;-57
2024/02/25 08:23:12;;;;;;;8.37;6.17;;;0.30;99.90;;;;;;5085030;28;20714;-57
2024/02/25 08:25:37;;;;;;;9.30;5.63;;;0.30;99.90;;;;;;5086186;28;20611;-57
2024/02/25 08:28:03;;;;;;;8.50;6.50;;;0.40;99.90;;;;;;5086663;28;20201;-58
2024/02/25 08:30:29;;;;;;;11.50;6.90;;;0.40;99.90;;;;;;5080992;28;20634;-59
2024/02/25 08:32:54;;;;;;;10.10;6.23;;;0.50;99.90;;;;;;5087896;28;20737;-59
2024/02/25 08:35:20;;;;;;;7.20;5.47;;;0.50;99.90;;;;;;5084527;28;20177;-60
2024/02/25 08:37:49;;;;;;;7.73;5.83;;;0.60;99.90;;;;;;5085306;28;20211;-59
2024/02/25 08:40:15;;;;;;;7.67;5.13;;;0.60;99.90;;;;;;5089102;28;20176;-59
2024/02/25 08:42:40;;;;;;;11.23;5.90;;;0.70;99.90;;;;;;5091189;28;20437;-60
2024/02/25 08:45:07;;;;;;;8.77;4.73;;;0.80;99.90;;;;;;5087534;28;20177;-59
2024/02/25 08:47:33;;;;;;;9.70;4.53;;;0.90;99.90;;;;;;5082687;28;20212;-60
2024/02/25 08:49:59;;;;;;;6.37;4.90;;;1.00;99.90;;;;;;5084838;28;20400;-57
2024/02/25 08:52:24;;;;;;;7.37;5.00;;;1.10;99.90;;;;;;5083673;28;20211;-58
2024/02/25 08:54:50;;;;;;;7.30;5.50;;;1.10;99.90;;;;;;5084485;28;20176;-59
2024/02/25 08:57:16;;;;;;;6.93;5.17;;;1.20;99.90;;;;;;5084426;28;20464;-59
2024/02/25 08:59:42;;;;;;;7.50;4.80;;;1.30;99.90;;;;;;5087650;28;20180;-59
2024/02/25 09:02:07;;;;;;;6.93;4.60;;;1.50;99.90;;;;;;5104048;28;20443;-61
2024/02/25 09:04:33;;;;;;;5.87;4.43;;;1.60;99.90;;;;;;5103998;28;20181;-60
2024/02/25 09:07:01;;;;;;;6.10;4.97;;;1.70;99.90;;;;;;5080889;28;20176;-58
2024/02/25 09:09:27;;;;;;;10.50;5.30;;;1.80;99.90;;;;;;5086280;28;20499;-60
2024/02/25 09:11:53;;;;;;;8.00;5.90;;;1.90;99.90;;;;;;5086145;28;20503;-60
2024/02/25 09:14:20;;;;;;;8.20;5.80;;;2.00;99.90;;;;;;5084830;28;20190;-60
2024/02/25 09:16:45;;;;;;;9.00;5.20;;;2.20;99.90;;;;;;5080572;28;20858;-60
2024/02/25 09:19:12;;;;;;;7.87;6.17;;;2.30;99.90;;;;;;5085055;28;20407;-59
2024/02/25 09:21:38;;;;;;;6.80;5.83;;;2.50;99.90;;;;;;5087237;28;20271;-57
2024/02/25 09:24:04;;;;;;;9.27;6.43;;;2.60;99.90;;;;;;5083306;28;20424;-60
2024/02/25 09:26:30;;;;;;;10.47;6.03;;;2.70;99.90;;;;;;5081259;28;20186;-60
2024/02/25 09:28:55;;;;;;;9.37;6.20;;;2.90;99.90;;;;;;5082652;28;20459;-58
2024/02/25 09:31:21;;;;;;;8.53;6.27;;;3.00;99.90;;;;;;5086853;28;20174;-59
2024/02/25 09:33:52;;;;;;;10.80;6.83;;;3.10;99.90;;;;;;5084308;28;20189;-62
2024/02/25 09:36:23;;;;;;;9.97;6.83;;;3.20;99.90;;;;;;5087380;28;20174;-59
2024/02/25 09:38:52;;;;;;;9.70;6.77;;;3.30;99.90;;;;;;5089056;28;20796;-57
2024/02/25 09:41:29;;;;;;;9.20;6.50;;;3.40;99.90;;;;;;5085812;28;20496;-58
2024/02/25 09:44:00;;;;;;;8.53;6.17;;;3.60;99.90;;;;;;5084041;28;20443;-63
2024/02/25 09:46:29;;;;;;;6.47;5.70;;;3.80;99.90;;;;;;5086818;28;20468;-58
2024/02/25 09:48:55;;;;;;;6.00;5.40;;;4.00;99.90;;;;;;5077301;28;20589;-58
2024/02/25 09:51:21;;;;;;;5.47;4.40;;;4.10;99.90;;;;;;5083533;28;20502;-60
2024/02/25 09:53:50;;;;;;;4.97;4.07;;;4.40;99.90;;;;;;5083477;28;20193;-58
2024/02/25 09:56:17;;;;;;;5.07;4.20;;;4.70;99.90;;;;;;5085921;28;20418;-58
2024/02/25 09:58:43;;;;;;;5.57;3.73;;;4.90;99.90;;;;;;5078353;28;21017;-58
2024/02/25 10:01:08;;;;;;;8.33;3.60;;;5.10;99.90;;;;;;5077390;28;20436;-58
2024/02/25 10:03:35;;;;;;;4.73;3.43;;;5.30;99.90;;;;;;5084004;28;20651;-57
2024/02/25 10:06:01;;;;;;;4.77;3.13;;;5.50;99.90;;;;;;5080043;28;20597;-58
2024/02/25 10:08:26;;;;;;;3.60;3.30;;;5.70;99.90;;;;;;5082513;28;20463;-58
2024/02/25 10:10:52;;;;;;;4.80;3.73;;;5.80;99.90;;;;;;5082372;28;20178;-58
2024/02/25 10:13:18;;;;;;;4.00;3.23;;;6.00;99.90;;;;;;5089225;28;20734;-60
2024/02/25 10:15:43;;;;;;;3.40;3.10;;;6.20;99.90;;;;;;5085195;28;20202;-58
2024/02/25 10:18:11;;;;;;;8.80;3.07;;;6.50;99.90;;;;;;5082471;28;20408;-59
2024/02/25 10:20:36;;;;;;;4.77;3.37;;;6.60;97.30;;;;;;5080919;28;20265;-59
2024/02/25 10:23:09;;;;;;;4.87;2.70;;;6.70;90.70;;;;;;5084328;28;20506;-56
2024/02/25 10:25:40;;;;;;;2.80;1.90;;;6.70;77.50;;;;;;5072602;28;20244;-59
2024/02/25 10:28:16;;;;;;;3.90;2.17;;;6.80;76.20;;;;;;5080486;28;20806;-59
2024/02/25 10:30:58;;;;;;;3.67;2.50;;;6.70;66.70;;;;;;5082332;28;20431;-57
2024/02/25 10:33:24;;;;;;;2.23;2.03;;;6.80;70.70;;;;;;5071129;28;22051;-60
2024/02/25 10:35:50;;;;;;;2.20;1.97;;;6.90;66.50;;;;;;5080912;28;21055;-58
2024/02/25 10:38:19;;;;;;;1.83;1.37;;;7.10;68.00;;;;;;5080092;28;20181;-58
2024/02/25 10:40:45;;;;;;;1.87;1.43;;;7.30;62.10;;;;;;5087590;28;20451;-56
2024/02/25 10:43:13;;;;;;;1.57;1.20;;;7.30;60.10;;;;;;5076856;28;20487;-57
2024/02/25 10:45:44;;;;;;;3.83;1.90;;;7.30;59.40;;;;;;5088387;28;20434;-58
2024/02/25 10:48:14;;;;;;;2.03;1.13;;;7.30;58.30;;;;;;5083388;28;20468;-59
2024/02/25 10:50:40;;;;;;;2.70;1.30;;;7.40;57.10;;;;;;5080556;28;20442;-57
2024/02/25 10:53:08;;;;;;;3.03;1.40;;;7.40;57.50;;;;;;5078695;28;20462;-58
2024/02/25 10:55:34;;;;;;;1.10;1.00;;;7.50;56.80;;;;;;5077789;28;20436;-59
2024/02/25 10:58:01;;;;;;;3.43;1.40;;;7.70;55.80;;;;;;5076353;28;20856;-58
2024/02/25 11:00:27;;;;;;;2.53;1.20;;;7.80;54.90;;;;;;5076703;28;20473;-58
2024/02/25 11:02:53;;;;;;;2.40;1.27;;;7.90;54.20;;;;;;5081167;28;20448;-61
2024/02/25 11:05:19;;;;;;;2.40;1.93;;;7.90;53.80;;;;;;5084886;28;20265;-56
2024/02/25 11:07:46;;;;;;;1.10;1.00;;;8.00;53.80;;;;;;5078229;28;20573;-57
2024/02/25 11:10:21;;;;;;;1.30;1.20;;;8.10;52.80;;;;;;5077585;28;20174;-57
2024/02/25 11:12:53;;;;;;;0.90;0.90;;;8.20;54.30;;;;;;5081335;28;20462;-55
2024/02/25 11:15:20;;;;;;;1.17;1.07;;;8.40;53.70;;;;;;5077173;28;20423;-55
2024/02/25 11:17:49;;;;;;;1.97;1.27;;;8.60;53.10;;;;;;5083140;28;20403;-56
2024/02/25 11:20:22;;;;;;;1.30;1.10;;;8.70;52.20;;;;;;5080025;28;20424;-57
2024/02/25 11:22:49;;;;;;;0.97;0.97;;;8.80;50.20;;;;;;5073982;28;20524;-57
2024/02/25 11:25:26;;;;;;;5.20;1.27;;;8.90;51.10;;;;;;5077501;28;20432;-56
2024/02/25 11:28:15;;;;;;;1.40;1.30;;;9.10;51.60;;;;;;5081167;28;20465;-56
2024/02/25 11:30:41;;;;;;;4.53;1.40;;;9.20;50.80;;;;;;5078372;28;20759;-57
2024/02/25 11:33:26;;;;;;;1.53;1.10;;;9.30;50.80;;;;;;5079296;28;20436;-58
2024/02/25 11:35:54;;;;;;;1.27;1.17;;;9.40;49.80;;;;;;5082018;28;20430;-57
2024/02/25 11:38:26;;;;;;;1.13;1.10;;;9.50;50.20;;;;;;5080549;28;20770;-61
2024/02/25 11:40:52;;;;;;;1.00;0.93;;;9.70;50.60;;;;;;5083778;28;20467;-58
2024/02/25 11:43:19;;;;;;;2.97;1.43;;;9.80;48.20;;;;;;5094368;28;20459;-58
2024/02/25 11:45:45;;;;;;;1.50;1.33;;;9.90;49.30;;;;;;5076349;28;20434;-56
2024/02/25 11:48:11;;;;;;;1.33;1.23;;;10.20;49.30;;;;;;5080783;28;20467;-58
2024/02/25 11:50:37;;;;;;;1.50;1.40;;;10.50;50.10;;;;;;5081352;28;20416;-58
2024/02/25 11:53:03;;;;;;;4.00;1.83;;;10.70;49.30;;;;;;5081205;28;20455;-58
2024/02/25 11:55:30;;;;;;;2.40;1.77;;;11.00;48.90;;;;;;5084111;28;20423;-58
2024/02/25 11:57:56;;;;;;;1.60;1.50;;;11.30;48.60;;;;;;5077781;28;20178;-57
2024/02/25 12:00:22;;;;;;;4.13;1.10;;;11.60;48.40;;;;;;5077384;28;20523;-60
2024/02/25 12:02:48;;;;;;;2.50;1.20;;;12.10;47.90;;;;;;5079041;28;20542;-59
2024/02/25 12:05:15;;;;;;;2.63;2.00;;;12.60;47.00;;;;;;5073886;28;20181;-59
2024/02/25 12:07:42;;;;;;;2.93;1.77;;;13.10;44.60;;;;;;5080802;28;20971;-57
2024/02/25 12:10:08;;;;;;;2.20;1.87;;;13.50;42.50;;;;;;5082470;28;20964;-59
2024/02/25 12:12:34;;;;;;;2.67;1.67;;;13.90;42.80;;;;;;5079751;28;20940;-60
2024/02/25 12:15:00;;;;;;;6.37;3.93;;;14.40;42.70;;;;;;5081071;28;20578;-60
2024/02/25 12:17:26;;;;;;;1.97;1.80;;;14.90;41.60;;;;;;5078622;28;20597;-59
2024/02/25 12:19:53;;;;;;;2.20;1.57;;;15.40;40.30;;;;;;5078628;28;20456;-60
2024/02/25 12:22:22;;;;;;;2.67;2.07;;;15.80;38.90;;;;;;5083423;28;20735;-58
2024/02/25 12:24:52;;;;;;;1.37;1.27;;;16.30;37.30;;;;;;5082610;28;20427;-59
2024/02/25 12:27:21;;;;;;;2.80;1.30;;;16.60;37.10;;;;;;5082550;28;20463;-59
2024/02/25 12:29:56;;;;;;;1.00;0.83;;;17.10;37.10;;;;;;5077470;28;20828;-59
2024/02/25 12:32:22;;;;;;;1.27;0.90;;;17.30;34.60;;;;;;5078728;28;20438;-60
2024/02/25 12:34:47;;;;;;;1.30;1.20;;;17.50;34.20;;;;;;5077185;28;20427;-65
2024/02/25 12:37:17;;;;;;;3.10;2.30;;;17.60;34.30;;;;;;5077179;28;20195;-60
2024/02/25 12:39:42;;;;;;;2.10;1.80;;;17.70;35.70;;;;;;5080481;28;20170;-61